createdAt,value
2019-03-20T00:00:06.363Z,20.20
2019-03-20T00:01:07.968Z,16.90
2019-03-20T00:02:06.343Z,20.70
2019-03-20T00:03:06.332Z,23.90
2019-03-20T00:04:06.328Z,21.50
2019-03-20T00:05:06.309Z,20.00
2019-03-20T00:06:06.299Z,17.70
2019-03-20T00:07:06.287Z,20.60
2019-03-20T00:08:06.281Z,20.80
2019-03-20T00:09:06.270Z,15.40
2019-03-20T00:10:06.258Z,16.90
2019-03-20T00:11:06.246Z,19.10
2019-03-20T00:12:06.234Z,18.00
2019-03-20T00:13:06.225Z,15.80
2019-03-20T00:14:06.217Z,17.60
2019-03-20T00:15:06.206Z,17.70
2019-03-20T00:16:06.192Z,17.70
2019-03-20T00:17:06.233Z,19.70
2019-03-20T00:18:06.173Z,19.80
2019-03-20T00:19:06.166Z,19.90
2019-03-20T00:20:06.152Z,21.40
2019-03-20T00:21:06.140Z,19.40
2019-03-20T00:22:06.130Z,17.50
2019-03-20T00:23:06.120Z,16.40
2019-03-20T00:24:06.107Z,20.30
2019-03-20T00:25:06.115Z,16.70
2019-03-20T00:26:06.091Z,19.40
2019-03-20T00:27:06.076Z,20.60
2019-03-20T00:28:06.074Z,16.80
2019-03-20T00:29:06.056Z,19.30
2019-03-20T00:30:06.045Z,15.30
2019-03-20T00:31:06.036Z,19.20
2019-03-20T00:32:06.030Z,16.00
2019-03-20T00:33:06.015Z,19.60
2019-03-20T00:34:06.003Z,16.70
2019-03-20T00:35:05.996Z,18.00
2019-03-20T00:36:05.981Z,18.20
2019-03-20T00:37:05.973Z,20.60
2019-03-20T00:38:05.969Z,20.20
2019-03-20T00:39:05.951Z,21.80
2019-03-20T00:40:05.940Z,18.70
2019-03-20T00:41:05.927Z,16.60
2019-03-20T00:42:05.918Z,25.00
2019-03-20T00:43:05.910Z,19.50
2019-03-20T00:44:05.933Z,19.00
2019-03-20T00:45:05.890Z,18.60
2019-03-20T00:46:05.874Z,19.00
2019-03-20T00:47:05.865Z,22.00
2019-03-20T00:48:05.857Z,22.30
2019-03-20T00:49:05.846Z,19.80
2019-03-20T00:50:05.849Z,24.10
2019-03-20T00:51:05.830Z,21.40
2019-03-20T00:52:05.812Z,21.20
2019-03-20T00:53:05.801Z,22.10
2019-03-20T00:54:05.793Z,21.40
2019-03-20T00:55:05.790Z,21.80
2019-03-20T00:56:05.773Z,23.90
2019-03-20T00:57:05.759Z,23.10
2019-03-20T00:58:05.751Z,20.50
2019-03-20T00:59:05.739Z,20.70
2019-03-20T01:00:05.728Z,18.20
2019-03-20T01:01:05.721Z,19.60
2019-03-20T01:02:05.706Z,21.80
2019-03-20T01:03:05.696Z,19.20
2019-03-20T01:04:05.685Z,20.20
2019-03-20T01:05:12.590Z,22.50
2019-03-20T01:06:06.674Z,20.20
2019-03-20T01:07:05.655Z,19.70
2019-03-20T01:08:05.646Z,18.60
2019-03-20T01:09:05.632Z,19.10
2019-03-20T01:10:05.622Z,17.80
2019-03-20T01:11:05.613Z,18.10
2019-03-20T01:12:05.602Z,18.70
2019-03-20T01:13:05.590Z,23.40
2019-03-20T01:14:05.580Z,20.40
2019-03-20T01:15:05.573Z,24.10
2019-03-20T01:16:05.560Z,21.80
2019-03-20T01:17:05.549Z,24.60
2019-03-20T01:18:05.538Z,19.40
2019-03-20T01:19:05.526Z,24.60
2019-03-20T01:20:05.517Z,21.30
2019-03-20T01:21:05.506Z,22.90
2019-03-20T01:22:05.498Z,19.80
2019-03-20T01:23:05.489Z,22.20
2019-03-20T01:24:05.473Z,16.70
2019-03-20T01:25:05.466Z,20.20
2019-03-20T01:26:05.456Z,19.80
2019-03-20T01:27:05.442Z,19.60
2019-03-20T01:28:05.432Z,18.40
2019-03-20T01:29:05.419Z,18.40
2019-03-20T01:30:05.409Z,19.40
2019-03-20T01:31:05.403Z,16.10
2019-03-20T01:32:05.394Z,18.00
2019-03-20T01:33:05.391Z,18.60
2019-03-20T01:34:05.372Z,18.50
2019-03-20T01:35:05.364Z,19.10
2019-03-20T01:36:05.347Z,17.40
2019-03-20T01:37:05.343Z,21.70
2019-03-20T01:38:05.329Z,19.40
2019-03-20T01:39:05.314Z,20.50
2019-03-20T01:40:05.305Z,18.90
2019-03-20T01:41:05.296Z,18.80
2019-03-20T01:42:05.281Z,17.50
2019-03-20T01:43:05.278Z,20.60
2019-03-20T01:44:05.262Z,19.10
2019-03-20T01:45:05.344Z,20.20
2019-03-20T01:46:05.240Z,19.90
2019-03-20T01:47:06.812Z,19.40
2019-03-20T01:48:05.220Z,17.80
2019-03-20T01:49:05.207Z,17.80
2019-03-20T01:50:05.199Z,20.80
2019-03-20T01:51:05.188Z,21.70
2019-03-20T01:52:05.176Z,18.10
2019-03-20T01:53:05.165Z,17.00
2019-03-20T01:54:05.159Z,19.80
2019-03-20T01:55:05.145Z,15.40
2019-03-20T01:56:05.133Z,19.80
2019-03-20T01:57:05.201Z,15.90
2019-03-20T01:58:05.112Z,17.80
2019-03-20T01:59:05.101Z,20.50
2019-03-20T02:00:05.141Z,19.50
2019-03-20T02:01:05.084Z,18.80
2019-03-20T02:02:05.069Z,17.90
2019-03-20T02:03:05.061Z,17.80
2019-03-20T02:04:05.049Z,15.10
2019-03-20T02:05:05.057Z,19.40
2019-03-20T02:06:05.025Z,21.50
2019-03-20T02:07:05.019Z,21.20
2019-03-20T02:08:05.005Z,22.00
2019-03-20T02:09:04.995Z,18.80
2019-03-20T02:10:04.984Z,21.50
2019-03-20T02:11:04.974Z,18.60
2019-03-20T02:12:04.968Z,17.80
2019-03-20T02:13:04.955Z,21.60
2019-03-20T02:14:04.942Z,20.10
2019-03-20T02:15:04.929Z,16.60
2019-03-20T02:16:04.927Z,20.20
2019-03-20T02:17:04.910Z,19.90
2019-03-20T02:18:04.903Z,22.50
2019-03-20T02:19:04.888Z,20.10
2019-03-20T02:20:04.879Z,19.90
2019-03-20T02:21:04.866Z,19.60
2019-03-20T02:22:04.857Z,17.60
2019-03-20T02:23:04.847Z,18.10
2019-03-20T02:24:04.838Z,19.70
2019-03-20T02:25:04.825Z,21.40
2019-03-20T02:26:04.818Z,16.60
2019-03-20T02:27:04.809Z,18.60
2019-03-20T02:28:04.793Z,18.40
2019-03-20T02:29:04.781Z,18.10
2019-03-20T02:30:04.777Z,15.40
2019-03-20T02:31:04.766Z,18.20
2019-03-20T02:32:04.750Z,19.30
2019-03-20T02:33:04.742Z,16.30
2019-03-20T02:34:04.733Z,17.30
2019-03-20T02:35:04.718Z,17.90
2019-03-20T02:36:04.715Z,16.40
2019-03-20T02:37:04.699Z,17.50
2019-03-20T02:38:04.687Z,19.50
2019-03-20T02:39:04.678Z,16.90
2019-03-20T02:40:04.672Z,16.00
2019-03-20T02:41:04.669Z,16.00
2019-03-20T02:42:04.646Z,19.40
2019-03-20T02:43:04.634Z,16.70
2019-03-20T02:44:04.625Z,18.10
2019-03-20T02:45:04.612Z,18.10
2019-03-20T02:46:04.606Z,19.10
2019-03-20T02:47:04.591Z,20.90
2019-03-20T02:48:04.585Z,20.00
2019-03-20T02:49:04.573Z,20.40
2019-03-20T02:50:04.565Z,18.40
2019-03-20T02:51:04.548Z,16.90
2019-03-20T02:52:04.540Z,15.80
2019-03-20T02:53:04.530Z,17.00
2019-03-20T02:54:04.523Z,16.90
2019-03-20T02:55:04.516Z,17.30
2019-03-20T02:56:04.503Z,14.60
2019-03-20T02:57:04.484Z,15.80
2019-03-20T02:58:04.476Z,17.10
2019-03-20T02:59:04.476Z,19.00
2019-03-20T03:00:04.454Z,20.10
2019-03-20T03:01:04.443Z,19.20
2019-03-20T03:02:04.434Z,16.50
2019-03-20T03:03:04.428Z,14.20
2019-03-20T03:04:04.417Z,26.40
2019-03-20T03:05:04.403Z,20.10
2019-03-20T03:06:07.026Z,13.90
2019-03-20T03:07:04.376Z,16.70
2019-03-20T03:08:04.400Z,15.80
2019-03-20T03:09:04.357Z,19.50
2019-03-20T03:10:04.352Z,19.80
2019-03-20T03:11:04.338Z,16.70
2019-03-20T03:12:04.323Z,15.70
2019-03-20T03:13:04.321Z,20.60
2019-03-20T03:14:04.306Z,18.00
2019-03-20T03:15:04.296Z,17.90
2019-03-20T03:16:04.283Z,20.00
2019-03-20T03:17:04.304Z,18.00
2019-03-20T03:18:04.260Z,16.00
2019-03-20T03:19:04.249Z,20.90
2019-03-20T03:20:04.241Z,17.90
2019-03-20T03:21:04.230Z,16.30
2019-03-20T03:22:04.241Z,19.30
2019-03-20T03:23:04.304Z,16.40
2019-03-20T03:24:04.204Z,18.60
2019-03-20T03:25:04.195Z,18.10
2019-03-20T03:26:04.181Z,14.10
2019-03-20T03:27:04.168Z,17.00
2019-03-20T03:28:04.169Z,17.10
2019-03-20T03:29:04.148Z,16.70
2019-03-20T03:30:04.139Z,15.10
2019-03-20T03:31:04.131Z,18.20
2019-03-20T03:32:04.120Z,16.20
2019-03-20T03:33:04.105Z,17.20
2019-03-20T03:34:04.090Z,15.50
2019-03-20T03:35:04.087Z,19.20
2019-03-20T03:36:04.069Z,17.70
2019-03-20T03:37:04.065Z,19.80
2019-03-20T03:38:04.050Z,15.50
2019-03-20T03:39:04.037Z,14.10
2019-03-20T03:40:04.025Z,16.50
2019-03-20T03:41:04.019Z,16.10
2019-03-20T03:42:04.026Z,17.30
2019-03-20T03:43:03.994Z,17.90
2019-03-20T03:44:03.996Z,21.00
2019-03-20T03:45:03.977Z,15.70
2019-03-20T03:46:03.965Z,15.20
2019-03-20T03:47:03.958Z,14.70
2019-03-20T03:48:03.951Z,20.30
2019-03-20T03:49:03.929Z,18.20
2019-03-20T03:50:03.921Z,17.50
2019-03-20T03:51:03.911Z,17.70
2019-03-20T03:52:03.899Z,18.80
2019-03-20T03:53:03.891Z,19.20
2019-03-20T03:54:03.881Z,18.00
2019-03-20T03:55:03.869Z,14.10
2019-03-20T03:56:03.864Z,15.70
2019-03-20T03:57:03.852Z,17.20
2019-03-20T03:58:03.836Z,18.80
2019-03-20T03:59:03.829Z,18.30
2019-03-20T04:00:03.818Z,15.70
2019-03-20T04:01:03.827Z,18.30
2019-03-20T04:02:03.803Z,19.30
2019-03-20T04:03:03.812Z,21.50
2019-03-20T04:04:03.792Z,17.80
2019-03-20T04:05:03.760Z,19.60
2019-03-20T04:06:03.757Z,16.50
2019-03-20T04:07:03.738Z,18.00
2019-03-20T04:08:03.735Z,19.00
2019-03-20T04:09:03.717Z,18.20
2019-03-20T04:10:03.711Z,15.90
2019-03-20T04:11:03.722Z,16.20
2019-03-20T04:12:03.684Z,14.40
2019-03-20T04:13:03.678Z,17.80
2019-03-20T04:14:03.675Z,17.80
2019-03-20T04:15:03.653Z,15.00
2019-03-20T04:16:03.648Z,15.50
2019-03-20T04:17:03.631Z,15.70
2019-03-20T04:18:03.621Z,15.60
2019-03-20T04:19:03.611Z,16.00
2019-03-20T04:20:03.599Z,17.00
2019-03-20T04:21:03.588Z,17.70
2019-03-20T04:22:03.579Z,19.90
2019-03-20T04:23:03.569Z,22.30
2019-03-20T04:24:03.564Z,17.50
2019-03-20T04:25:03.553Z,14.60
2019-03-20T04:26:03.540Z,15.00
2019-03-20T04:27:03.528Z,17.90
2019-03-20T04:28:03.514Z,17.00
2019-03-20T04:29:03.508Z,18.90
2019-03-20T04:30:03.492Z,14.20
2019-03-20T04:31:03.486Z,16.50
2019-03-20T04:32:03.478Z,13.60
2019-03-20T04:33:03.488Z,15.80
2019-03-20T04:34:03.454Z,13.60
2019-03-20T04:35:03.440Z,12.10
2019-03-20T04:36:03.433Z,14.10
2019-03-20T04:37:03.497Z,14.90
2019-03-20T04:38:03.416Z,14.70
2019-03-20T04:39:03.399Z,14.20
2019-03-20T04:40:03.390Z,18.00
2019-03-20T04:41:03.377Z,16.40
2019-03-20T04:42:03.366Z,19.30
2019-03-20T04:43:03.362Z,16.70
2019-03-20T04:44:03.348Z,15.10
2019-03-20T04:45:03.340Z,15.50
2019-03-20T04:46:03.326Z,17.00
2019-03-20T04:47:03.313Z,18.20
2019-03-20T04:48:03.306Z,16.60
2019-03-20T04:49:03.292Z,18.30
2019-03-20T04:50:03.281Z,18.10
2019-03-20T04:51:03.274Z,16.60
2019-03-20T04:52:03.259Z,18.40
2019-03-20T04:53:03.249Z,15.30
2019-03-20T04:54:03.238Z,16.50
2019-03-20T04:55:03.231Z,18.10
2019-03-20T04:56:03.216Z,17.10
2019-03-20T04:57:03.207Z,14.50
2019-03-20T04:58:03.195Z,16.80
2019-03-20T04:59:03.184Z,14.40
2019-03-20T05:00:03.174Z,16.20
2019-03-20T05:01:03.163Z,13.70
2019-03-20T05:02:03.153Z,18.00
2019-03-20T05:03:03.144Z,14.30
2019-03-20T05:04:03.130Z,17.20
2019-03-20T05:05:03.123Z,16.70
2019-03-20T05:06:03.126Z,19.30
2019-03-20T05:07:03.099Z,16.30
2019-03-20T05:08:03.093Z,15.00
2019-03-20T05:09:03.077Z,16.40
2019-03-20T05:10:03.068Z,14.80
2019-03-20T05:11:03.058Z,12.80
2019-03-20T05:12:03.049Z,14.70
2019-03-20T05:13:03.036Z,16.20
2019-03-20T05:14:03.027Z,14.60
2019-03-20T05:15:03.015Z,12.00
2019-03-20T05:16:03.006Z,13.30
2019-03-20T05:17:02.994Z,14.20
2019-03-20T05:18:02.981Z,15.30
2019-03-20T05:19:02.973Z,14.20
2019-03-20T05:20:02.961Z,21.20
2019-03-20T05:21:02.951Z,13.80
2019-03-20T05:22:02.941Z,14.80
2019-03-20T05:23:02.932Z,12.10
2019-03-20T05:24:02.919Z,13.70
2019-03-20T05:25:02.909Z,14.40
2019-03-20T05:26:02.899Z,13.90
2019-03-20T05:27:02.887Z,13.70
2019-03-20T05:28:02.877Z,19.70
2019-03-20T05:29:02.866Z,15.60
2019-03-20T05:30:02.857Z,13.90
2019-03-20T05:31:02.851Z,13.80
2019-03-20T05:32:02.838Z,14.60
2019-03-20T05:33:02.823Z,14.90
2019-03-20T05:34:02.813Z,13.60
2019-03-20T05:35:02.802Z,14.50
2019-03-20T05:36:02.791Z,16.50
2019-03-20T05:37:10.145Z,13.40
2019-03-20T05:38:03.769Z,16.30
2019-03-20T05:39:02.764Z,14.60
2019-03-20T05:40:02.749Z,15.80
2019-03-20T05:41:02.738Z,11.70
2019-03-20T05:42:02.728Z,13.00
2019-03-20T05:43:02.718Z,13.10
2019-03-20T05:44:02.726Z,13.70
2019-03-20T05:45:02.698Z,12.80
2019-03-20T05:46:02.684Z,15.80
2019-03-20T05:47:02.681Z,12.50
2019-03-20T05:48:02.666Z,14.00
2019-03-20T05:49:02.658Z,12.80
2019-03-20T05:50:02.652Z,11.10
2019-03-20T05:51:02.633Z,14.20
2019-03-20T05:52:02.622Z,13.40
2019-03-20T05:53:02.614Z,15.30
2019-03-20T05:54:02.601Z,10.70
2019-03-20T05:55:02.591Z,12.90
2019-03-20T05:56:02.581Z,11.20
2019-03-20T05:57:02.572Z,9.00
2019-03-20T05:58:02.564Z,11.60
2019-03-20T05:59:02.556Z,11.50
2019-03-20T06:00:02.550Z,10.10
2019-03-20T06:01:02.530Z,10.80
2019-03-20T06:02:02.523Z,11.90
2019-03-20T06:03:02.505Z,9.30
2019-03-20T06:04:02.494Z,10.70
2019-03-20T06:05:02.483Z,9.40
2019-03-20T06:06:02.500Z,9.00
2019-03-20T06:07:02.463Z,7.80
2019-03-20T06:08:02.465Z,9.50
2019-03-20T06:09:02.444Z,10.70
2019-03-20T06:10:02.436Z,11.10
2019-03-20T06:11:02.420Z,9.30
2019-03-20T06:12:02.411Z,8.80
2019-03-20T06:13:02.403Z,11.40
2019-03-20T06:14:02.400Z,8.80
2019-03-20T06:15:02.387Z,8.60
2019-03-20T06:16:02.371Z,8.20
2019-03-20T06:17:02.361Z,12.70
2019-03-20T06:18:02.347Z,9.50
2019-03-20T06:19:02.338Z,10.00
2019-03-20T06:20:02.326Z,9.50
2019-03-20T06:21:02.342Z,8.40
2019-03-20T06:22:02.308Z,10.30
2019-03-20T06:23:02.299Z,8.70
2019-03-20T06:24:02.289Z,9.40
2019-03-20T06:25:02.277Z,9.00
2019-03-20T06:26:02.264Z,10.80
2019-03-20T06:27:02.256Z,9.70
2019-03-20T06:28:02.239Z,11.00
2019-03-20T06:29:02.233Z,12.20
2019-03-20T06:30:02.224Z,10.00
2019-03-20T06:31:02.207Z,9.90
2019-03-20T06:32:02.214Z,7.50
2019-03-20T06:33:02.186Z,10.00
2019-03-20T06:34:02.178Z,9.50
2019-03-20T06:35:02.165Z,11.40
2019-03-20T06:36:02.155Z,7.90
2019-03-20T06:37:02.142Z,9.50
2019-03-20T06:38:02.132Z,11.40
2019-03-20T06:39:02.120Z,6.80
2019-03-20T06:40:02.111Z,10.10
2019-03-20T06:41:02.102Z,6.90
2019-03-20T06:42:02.089Z,8.10
2019-03-20T06:43:02.082Z,9.50
2019-03-20T06:44:02.069Z,12.60
2019-03-20T06:45:02.059Z,8.70
2019-03-20T06:46:02.046Z,9.10
2019-03-20T06:47:02.038Z,8.30
2019-03-20T06:48:02.035Z,7.20
2019-03-20T06:49:02.021Z,11.10
2019-03-20T06:50:02.004Z,8.00
2019-03-20T06:51:01.992Z,9.90
2019-03-20T06:52:01.984Z,10.40
2019-03-20T06:53:01.969Z,10.70
2019-03-20T06:54:01.960Z,9.00
2019-03-20T06:55:01.991Z,9.10
2019-03-20T06:56:02.055Z,8.70
2019-03-20T06:57:01.928Z,7.20
2019-03-20T06:58:01.917Z,7.30
2019-03-20T06:59:01.907Z,10.10
2019-03-20T07:00:01.897Z,9.20
2019-03-20T07:01:01.889Z,11.80
2019-03-20T07:02:01.871Z,6.50
2019-03-20T07:03:01.861Z,9.00
2019-03-20T07:04:01.849Z,12.20
2019-03-20T07:05:01.853Z,11.20
2019-03-20T07:06:01.828Z,8.30
2019-03-20T07:07:01.818Z,6.40
2019-03-20T07:08:01.806Z,7.70
2019-03-20T07:09:01.796Z,7.50
2019-03-20T07:10:01.788Z,11.90
2019-03-20T07:11:01.773Z,7.20
2019-03-20T07:12:01.769Z,8.00
2019-03-20T07:13:01.767Z,10.30
2019-03-20T07:14:01.742Z,9.00
2019-03-20T07:15:01.733Z,7.60
2019-03-20T07:16:01.721Z,8.80
2019-03-20T07:17:01.718Z,7.20
2019-03-20T07:18:01.703Z,8.00
2019-03-20T07:19:01.691Z,8.30
2019-03-20T07:20:01.678Z,7.40
2019-03-20T07:21:01.670Z,7.40
2019-03-20T07:22:01.656Z,9.50
2019-03-20T07:23:01.653Z,8.50
2019-03-20T07:24:01.647Z,4.80
2019-03-20T07:25:01.627Z,6.30
2019-03-20T07:26:01.611Z,7.30
2019-03-20T07:27:01.600Z,9.20
2019-03-20T07:28:01.591Z,6.30
2019-03-20T07:29:01.580Z,6.60
2019-03-20T07:30:01.568Z,7.50
2019-03-20T07:31:01.556Z,9.40
2019-03-20T07:32:01.546Z,7.00
2019-03-20T07:33:01.534Z,6.50
2019-03-20T07:34:01.524Z,8.50
2019-03-20T07:35:01.515Z,6.30
2019-03-20T07:36:01.501Z,6.50
2019-03-20T07:37:01.490Z,5.50
2019-03-20T07:38:01.479Z,8.20
2019-03-20T07:39:01.472Z,5.20
2019-03-20T07:40:01.465Z,6.40
2019-03-20T07:41:01.449Z,8.00
2019-03-20T07:42:01.437Z,6.40
2019-03-20T07:43:08.833Z,5.80
2019-03-20T07:44:02.412Z,8.90
2019-03-20T07:45:01.405Z,5.00
2019-03-20T07:46:01.393Z,5.30
2019-03-20T07:47:01.386Z,6.30
2019-03-20T07:48:01.369Z,7.30
2019-03-20T07:49:01.357Z,8.90
2019-03-20T07:50:01.348Z,4.70
2019-03-20T07:51:01.337Z,6.10
2019-03-20T07:52:01.332Z,8.40
2019-03-20T07:53:01.319Z,9.90
2019-03-20T07:54:01.303Z,7.00
2019-03-20T07:55:01.299Z,6.30
2019-03-20T07:56:01.285Z,7.50
2019-03-20T07:57:01.270Z,5.70
2019-03-20T07:58:01.260Z,6.00
2019-03-20T07:59:01.250Z,8.00
2019-03-20T08:00:01.240Z,7.60
2019-03-20T08:01:01.226Z,8.00
2019-03-20T08:02:01.216Z,6.30
2019-03-20T08:03:01.207Z,6.70
2019-03-20T08:04:01.195Z,6.70
2019-03-20T08:05:01.190Z,6.80
2019-03-20T08:06:01.173Z,6.30
2019-03-20T08:07:01.162Z,5.20
2019-03-20T08:08:07.100Z,6.80
2019-03-20T08:09:02.137Z,8.30
2019-03-20T08:10:01.134Z,6.30
2019-03-20T08:11:01.141Z,5.60
2019-03-20T08:12:01.109Z,4.50
2019-03-20T08:13:01.106Z,7.90
2019-03-20T08:14:01.096Z,5.70
2019-03-20T08:15:01.074Z,6.30
2019-03-20T08:16:01.071Z,6.20
2019-03-20T08:17:01.053Z,5.80
2019-03-20T08:18:01.046Z,4.30
2019-03-20T08:19:01.034Z,5.30
2019-03-20T08:20:01.021Z,6.00
2019-03-20T08:21:01.009Z,4.90
2019-03-20T08:22:01.001Z,7.10
2019-03-20T08:23:00.986Z,7.90
2019-03-20T08:24:00.993Z,5.90
2019-03-20T08:25:00.966Z,5.50
2019-03-20T08:26:00.954Z,5.50
2019-03-20T08:27:00.945Z,8.60
2019-03-20T08:28:00.933Z,6.80
2019-03-20T08:29:00.924Z,5.40
2019-03-20T08:30:00.914Z,4.50
2019-03-20T08:31:00.902Z,6.30
2019-03-20T08:32:00.891Z,6.80
2019-03-20T08:33:00.884Z,5.50
2019-03-20T08:34:00.869Z,6.10
2019-03-20T08:35:00.874Z,8.30
2019-03-20T08:36:00.846Z,4.70
2019-03-20T08:37:02.486Z,5.50
2019-03-20T08:38:00.825Z,7.20
2019-03-20T08:39:00.816Z,7.50
2019-03-20T08:40:00.808Z,6.40
2019-03-20T08:41:00.792Z,6.70
2019-03-20T08:42:00.781Z,5.30
2019-03-20T08:43:00.770Z,6.60
2019-03-20T08:44:00.759Z,5.80
2019-03-20T08:45:00.757Z,7.10
2019-03-20T08:46:00.737Z,5.50
2019-03-20T08:47:00.740Z,6.50
2019-03-20T08:48:00.716Z,4.30
2019-03-20T08:49:00.708Z,6.80
2019-03-20T08:50:00.695Z,8.20
2019-03-20T08:51:00.695Z,7.10
2019-03-20T08:52:00.673Z,6.00
2019-03-20T08:53:00.663Z,7.20
2019-03-20T08:54:00.653Z,6.60
2019-03-20T08:55:00.641Z,7.70
2019-03-20T08:56:00.631Z,7.90
2019-03-20T08:57:00.620Z,7.40
2019-03-20T08:58:00.609Z,5.00
2019-03-20T08:59:00.603Z,5.10
2019-03-20T09:00:00.592Z,7.30
2019-03-20T09:01:00.581Z,6.40
2019-03-20T09:02:00.567Z,6.30
2019-03-20T09:03:00.557Z,7.10
2019-03-20T09:04:00.550Z,6.00
2019-03-20T09:05:00.540Z,4.50
2019-03-20T09:06:00.526Z,7.10
2019-03-20T09:07:00.520Z,6.00
2019-03-20T09:08:00.507Z,7.60
2019-03-20T09:09:00.504Z,8.20
2019-03-20T09:10:00.486Z,6.30
2019-03-20T09:11:00.478Z,5.20
2019-03-20T09:12:00.462Z,8.50
2019-03-20T09:13:00.451Z,6.20
2019-03-20T09:14:00.442Z,6.90
2019-03-20T09:15:00.430Z,6.20
2019-03-20T09:16:00.418Z,4.20
2019-03-20T09:17:00.409Z,6.00
2019-03-20T09:18:00.399Z,8.60
2019-03-20T09:19:00.387Z,4.40
2019-03-20T09:20:00.382Z,7.90
2019-03-20T09:21:00.390Z,5.80
2019-03-20T09:22:00.387Z,5.60
2019-03-20T09:23:00.344Z,6.90
2019-03-20T09:24:00.333Z,6.70
2019-03-20T09:25:00.463Z,8.20
2019-03-20T09:26:00.315Z,6.20
2019-03-20T09:27:00.301Z,7.80
2019-03-20T09:28:00.291Z,7.20
2019-03-20T09:29:00.283Z,5.70
2019-03-20T09:30:00.398Z,5.00
2019-03-20T09:31:00.260Z,3.80
2019-03-20T09:32:00.256Z,5.90
2019-03-20T09:33:00.243Z,6.30
2019-03-20T09:34:00.304Z,6.20
2019-03-20T09:35:00.384Z,4.70
2019-03-20T09:36:00.206Z,7.20
2019-03-20T09:37:00.194Z,5.80
2019-03-20T09:38:00.190Z,4.60
2019-03-20T09:39:00.176Z,5.20
2019-03-20T09:40:00.344Z,6.50
2019-03-20T09:41:00.150Z,7.20
2019-03-20T09:42:00.150Z,5.20
2019-03-20T09:43:00.131Z,6.90
2019-03-20T09:44:00.124Z,5.70
2019-03-20T09:45:00.158Z,5.40
2019-03-20T09:46:00.098Z,6.30
2019-03-20T09:47:00.085Z,7.90
2019-03-20T09:48:00.075Z,6.80
2019-03-20T09:49:00.073Z,7.30
2019-03-20T09:50:00.061Z,5.90
2019-03-20T09:51:00.049Z,6.10
2019-03-20T09:52:00.035Z,6.80
2019-03-20T09:53:00.022Z,4.10
2019-03-20T09:54:00.011Z,4.60
2019-03-20T09:55:00.008Z,6.60
2019-03-20T09:55:59.993Z,6.30
2019-03-20T09:56:59.979Z,6.10
2019-03-20T09:57:59.978Z,9.40
2019-03-20T09:58:59.960Z,6.90
2019-03-20T09:59:59.951Z,7.40
2019-03-20T10:00:59.939Z,6.20
2019-03-20T10:01:59.929Z,5.30
2019-03-20T10:02:59.915Z,7.30
2019-03-20T10:03:59.908Z,6.20
2019-03-20T10:04:59.901Z,7.70
2019-03-20T10:05:59.883Z,7.60
2019-03-20T10:06:59.875Z,6.10
2019-03-20T10:07:59.868Z,7.50
2019-03-20T10:09:01.915Z,7.10
2019-03-20T10:09:59.842Z,7.30
2019-03-20T10:10:59.837Z,6.70
2019-03-20T10:11:59.824Z,5.80
2019-03-20T10:12:59.813Z,6.90
2019-03-20T10:13:59.809Z,6.50
2019-03-20T10:14:59.798Z,7.80
2019-03-20T10:15:59.783Z,8.20
2019-03-20T10:16:59.770Z,6.10
2019-03-20T10:17:59.763Z,6.50
2019-03-20T10:18:59.753Z,6.10
2019-03-20T10:19:59.741Z,8.10
2019-03-20T10:20:59.730Z,7.10
2019-03-20T10:21:59.719Z,7.30
2019-03-20T10:22:59.712Z,7.40
2019-03-20T10:23:59.700Z,5.60
2019-03-20T10:24:59.689Z,8.40
2019-03-20T10:25:59.681Z,5.20
2019-03-20T10:26:59.675Z,4.50
2019-03-20T10:27:59.658Z,7.60
2019-03-20T10:28:59.650Z,7.60
2019-03-20T10:29:59.636Z,7.20
2019-03-20T10:30:59.629Z,6.50
2019-03-20T10:31:59.616Z,6.50
2019-03-20T10:32:59.604Z,7.50
2019-03-20T10:33:59.592Z,5.50
2019-03-20T10:34:59.590Z,8.30
2019-03-20T10:35:59.568Z,6.20
2019-03-20T10:36:59.559Z,8.10
2019-03-20T10:37:59.550Z,5.00
2019-03-20T10:39:06.345Z,8.00
2019-03-20T10:40:00.528Z,8.20
2019-03-20T10:40:59.516Z,6.40
2019-03-20T10:41:59.507Z,7.40
2019-03-20T10:42:59.498Z,5.70
2019-03-20T10:43:59.486Z,5.70
2019-03-20T10:44:59.471Z,7.10
2019-03-20T10:45:59.467Z,7.60
2019-03-20T10:46:59.452Z,7.10
2019-03-20T10:47:59.443Z,7.20
2019-03-20T10:48:59.432Z,5.50
2019-03-20T10:49:59.430Z,5.40
2019-03-20T10:50:59.416Z,4.80
2019-03-20T10:51:59.408Z,7.00
2019-03-20T10:52:59.388Z,5.80
2019-03-20T10:53:59.379Z,6.20
2019-03-20T10:54:59.374Z,7.80
2019-03-20T10:55:59.437Z,6.00
2019-03-20T10:56:59.348Z,7.80
2019-03-20T10:57:59.335Z,5.80
2019-03-20T10:58:59.325Z,6.80
2019-03-20T10:59:59.312Z,5.80
2019-03-20T11:00:59.303Z,6.70
2019-03-20T11:02:00.870Z,6.90
2019-03-20T11:02:59.285Z,6.50
2019-03-20T11:03:59.275Z,7.00
2019-03-20T11:04:59.263Z,7.20
2019-03-20T11:05:59.254Z,8.10
2019-03-20T11:06:59.240Z,7.80
2019-03-20T11:07:59.229Z,8.70
2019-03-20T11:08:59.218Z,6.70
2019-03-20T11:09:59.208Z,6.90
2019-03-20T11:10:59.198Z,7.10
2019-03-20T11:11:59.191Z,8.40
2019-03-20T11:12:59.183Z,5.90
2019-03-20T11:13:59.175Z,7.80
2019-03-20T11:14:59.171Z,8.70
2019-03-20T11:15:59.149Z,7.50
2019-03-20T11:16:59.137Z,9.20
2019-03-20T11:17:59.146Z,6.70
2019-03-20T11:18:59.124Z,7.60
2019-03-20T11:19:59.184Z,6.00
2019-03-20T11:20:59.094Z,6.50
2019-03-20T11:21:59.083Z,8.10
2019-03-20T11:22:59.071Z,8.10
2019-03-20T11:23:59.061Z,7.50
2019-03-20T11:24:59.050Z,8.20
2019-03-20T11:26:00.119Z,10.20
2019-03-20T11:26:59.033Z,7.80
2019-03-20T11:27:59.017Z,9.40
2019-03-20T11:28:59.008Z,8.80
2019-03-20T11:29:59.000Z,9.60
2019-03-20T11:30:58.988Z,7.90
2019-03-20T11:31:58.975Z,9.20
2019-03-20T11:32:58.972Z,9.40
2019-03-20T11:33:58.953Z,8.20
2019-03-20T11:34:58.942Z,8.70
2019-03-20T11:35:58.935Z,8.80
2019-03-20T11:36:58.968Z,6.40
2019-03-20T11:37:58.913Z,9.80
2019-03-20T11:38:58.899Z,8.80
2019-03-20T11:39:58.895Z,7.60
2019-03-20T11:40:58.881Z,8.90
2019-03-20T11:41:58.868Z,9.00
2019-03-20T11:42:58.879Z,9.30
2019-03-20T11:43:58.846Z,7.40
2019-03-20T11:44:58.838Z,8.80
2019-03-20T11:45:58.825Z,9.40
2019-03-20T11:46:58.816Z,10.80
2019-03-20T11:47:58.804Z,8.50
2019-03-20T11:48:58.791Z,9.90
2019-03-20T11:49:58.783Z,9.30
2019-03-20T11:50:58.767Z,8.20
2019-03-20T11:51:58.757Z,9.40
2019-03-20T11:52:58.813Z,6.90
2019-03-20T11:53:58.737Z,8.50
2019-03-20T11:54:58.727Z,8.50
2019-03-20T11:55:58.717Z,10.00
2019-03-20T11:56:58.704Z,8.90
2019-03-20T11:57:58.704Z,7.20
2019-03-20T11:58:58.685Z,9.00
2019-03-20T11:59:58.669Z,6.90
2019-03-20T12:00:58.657Z,6.90
2019-03-20T12:01:58.653Z,9.60
2019-03-20T12:02:58.640Z,9.00
2019-03-20T12:03:58.629Z,7.00
2019-03-20T12:04:58.615Z,8.40
2019-03-20T12:05:58.614Z,6.30
2019-03-20T12:06:58.595Z,10.30
2019-03-20T12:07:58.586Z,7.40
2019-03-20T12:08:58.576Z,8.60
2019-03-20T12:09:59.005Z,8.40
2019-03-20T12:10:58.736Z,9.00
2019-03-20T12:11:58.545Z,9.90
2019-03-20T12:12:58.541Z,8.10
2019-03-20T12:13:58.519Z,6.70
2019-03-20T12:14:58.507Z,7.40
2019-03-20T12:15:58.499Z,7.10
2019-03-20T12:16:58.486Z,9.20
2019-03-20T12:17:58.532Z,8.00
2019-03-20T12:18:58.465Z,9.00
2019-03-20T12:19:58.451Z,10.00
2019-03-20T12:20:58.488Z,8.30
2019-03-20T12:21:58.434Z,7.20
2019-03-20T12:22:58.425Z,8.70
2019-03-20T12:23:58.414Z,8.20
2019-03-20T12:24:58.404Z,5.70
2019-03-20T12:25:58.390Z,6.80
2019-03-20T12:26:58.380Z,5.60
2019-03-20T12:27:58.369Z,7.50
2019-03-20T12:28:59.309Z,8.60
2019-03-20T12:29:58.345Z,7.30
2019-03-20T12:30:58.336Z,7.70
2019-03-20T12:31:58.333Z,7.30
2019-03-20T12:32:58.314Z,8.10
2019-03-20T12:33:58.304Z,8.30
2019-03-20T12:34:58.290Z,8.00
2019-03-20T12:35:58.280Z,6.50
2019-03-20T12:36:58.268Z,8.70
2019-03-20T12:37:58.262Z,8.30
2019-03-20T12:38:58.248Z,9.90
2019-03-20T12:39:58.248Z,7.50
2019-03-20T12:40:58.226Z,7.20
2019-03-20T12:41:58.215Z,8.30
2019-03-20T12:42:58.209Z,10.20
2019-03-20T12:43:58.197Z,7.30
2019-03-20T12:44:58.182Z,7.80
2019-03-20T12:45:58.171Z,8.30
2019-03-20T12:46:58.164Z,9.00
2019-03-20T12:47:58.152Z,8.20
2019-03-20T12:48:59.757Z,7.40
2019-03-20T12:49:58.128Z,6.20
2019-03-20T12:50:58.117Z,9.30
2019-03-20T12:51:58.116Z,7.40
2019-03-20T12:52:58.108Z,9.40
2019-03-20T12:53:58.090Z,6.90
2019-03-20T12:54:58.076Z,7.20
2019-03-20T12:55:58.066Z,7.30
2019-03-20T12:56:58.054Z,5.90
2019-03-20T12:57:58.048Z,7.10
2019-03-20T12:58:58.032Z,6.20
2019-03-20T12:59:58.036Z,7.90
2019-03-20T13:00:58.013Z,8.60
2019-03-20T13:01:58.003Z,8.50
2019-03-20T13:02:57.994Z,7.10
2019-03-20T13:03:57.977Z,8.90
2019-03-20T13:04:57.968Z,8.50